createdAt,value
2019-03-25T00:00:45.204Z,25.75
2019-03-25T00:03:14.084Z,29.05
2019-03-25T00:05:43.030Z,26.25
2019-03-25T00:08:11.995Z,19.85
2019-03-25T00:10:41.166Z,33.13
2019-03-25T00:13:10.061Z,23.85
2019-03-25T00:15:38.969Z,21.07
2019-03-25T00:18:07.857Z,32.95
2019-03-25T00:20:36.805Z,26.40
2019-03-25T00:23:05.738Z,27.25
2019-03-25T00:25:34.818Z,27.30
2019-03-25T00:28:03.769Z,24.55
2019-03-25T00:30:32.808Z,20.00
2019-03-25T00:33:01.674Z,19.20
2019-03-25T00:35:30.596Z,18.20
2019-03-25T00:37:59.470Z,16.70
2019-03-25T00:40:28.363Z,18.23
2019-03-25T00:42:57.373Z,13.72
2019-03-25T00:45:26.829Z,22.65
2019-03-25T00:47:55.747Z,16.20
2019-03-25T00:50:25.507Z,28.87
2019-03-25T00:52:54.376Z,29.85
2019-03-25T00:55:23.247Z,29.70
2019-03-25T00:57:52.180Z,27.17
2019-03-25T01:00:21.184Z,17.87
2019-03-25T01:02:50.082Z,18.17
2019-03-25T01:05:19.190Z,23.12
2019-03-25T01:07:48.069Z,21.00
2019-03-25T01:10:17.055Z,20.70
2019-03-25T01:12:46.297Z,16.90
2019-03-25T01:15:15.187Z,11.43
2019-03-25T01:17:44.254Z,16.62
2019-03-25T01:20:13.295Z,13.90
2019-03-25T01:22:42.885Z,21.85
2019-03-25T01:25:12.050Z,17.92
2019-03-25T01:27:40.942Z,18.73
2019-03-25T01:30:10.908Z,14.28
2019-03-25T01:32:39.877Z,22.15
2019-03-25T01:35:08.851Z,18.07
2019-03-25T01:37:37.733Z,25.85
2019-03-25T01:40:08.961Z,27.02
2019-03-25T01:42:38.054Z,22.20
2019-03-25T01:45:07.559Z,23.90
2019-03-25T01:47:36.480Z,27.40
2019-03-25T01:50:07.134Z,28.57
2019-03-25T01:52:36.189Z,23.30
2019-03-25T01:55:13.322Z,21.42
2019-03-25T01:57:36.835Z,18.57
2019-03-25T02:00:07.758Z,19.55
2019-03-25T02:02:36.753Z,17.73
2019-03-25T02:05:07.228Z,19.77
2019-03-25T02:07:36.140Z,26.23
2019-03-25T02:10:08.006Z,19.42
2019-03-25T02:12:37.106Z,31.37
2019-03-25T02:15:06.883Z,26.82
2019-03-25T02:17:35.773Z,22.85
2019-03-25T02:20:05.767Z,26.73
2019-03-25T02:22:34.958Z,24.95
2019-03-25T02:25:05.434Z,36.42
2019-03-25T02:27:34.312Z,19.23
2019-03-25T02:30:04.608Z,24.77
2019-03-25T02:32:33.641Z,21.97
2019-03-25T02:35:02.547Z,22.60
2019-03-25T02:37:31.428Z,27.85
2019-03-25T02:40:00.535Z,18.87
2019-03-25T02:42:29.963Z,19.75
2019-03-25T02:44:58.851Z,25.27
2019-03-25T02:47:27.751Z,26.70
2019-03-25T02:49:56.760Z,23.55
2019-03-25T02:52:25.913Z,28.80
2019-03-25T02:54:54.949Z,23.30
2019-03-25T02:57:23.813Z,19.52
2019-03-25T02:59:52.762Z,21.25
2019-03-25T03:02:21.857Z,17.42
2019-03-25T03:04:50.734Z,19.57
2019-03-25T03:07:19.664Z,28.23
2019-03-25T03:09:48.534Z,24.63
2019-03-25T03:12:17.491Z,16.40
2019-03-25T03:14:46.413Z,20.17
2019-03-25T03:17:15.347Z,22.73
2019-03-25T03:19:44.304Z,20.45
2019-03-25T03:22:13.226Z,24.25
2019-03-25T03:24:42.125Z,20.43
2019-03-25T03:27:11.006Z,21.90
2019-03-25T03:29:39.974Z,26.52
2019-03-25T03:32:08.855Z,23.25
2019-03-25T03:34:37.724Z,27.07
2019-03-25T03:37:06.661Z,22.93
2019-03-25T03:39:35.608Z,30.43
2019-03-25T03:42:04.581Z,19.02
2019-03-25T03:44:33.523Z,24.90
2019-03-25T03:47:02.407Z,31.85
2019-03-25T03:49:31.295Z,18.25
2019-03-25T03:52:00.205Z,24.72
2019-03-25T03:54:29.113Z,16.05
2019-03-25T03:56:58.500Z,18.77
2019-03-25T03:59:28.262Z,17.27
2019-03-25T04:01:57.373Z,14.28
2019-03-25T04:04:26.247Z,16.70
2019-03-25T04:06:55.184Z,21.73
2019-03-25T04:09:24.043Z,23.73
2019-03-25T04:11:53.013Z,20.35
2019-03-25T04:14:21.960Z,18.95
2019-03-25T04:16:50.849Z,18.55
2019-03-25T04:19:19.739Z,19.12
2019-03-25T04:21:49.147Z,19.80
2019-03-25T04:24:18.015Z,20.80
2019-03-25T04:26:46.887Z,22.52
2019-03-25T04:29:16.238Z,26.60
2019-03-25T04:31:45.280Z,24.60
2019-03-25T04:34:14.229Z,21.48
2019-03-25T04:36:43.116Z,22.05
2019-03-25T04:39:12.005Z,22.67
2019-03-25T04:41:41.040Z,20.43
2019-03-25T04:44:09.941Z,12.33
2019-03-25T04:46:38.820Z,14.53
2019-03-25T04:49:07.767Z,26.68
2019-03-25T04:51:38.219Z,18.12
2019-03-25T04:54:07.103Z,17.90
2019-03-25T04:56:39.821Z,20.50
2019-03-25T04:59:06.546Z,14.10
2019-03-25T05:01:35.654Z,15.48
2019-03-25T05:04:04.621Z,21.33
2019-03-25T05:06:33.484Z,17.80
2019-03-25T05:09:02.424Z,23.77
2019-03-25T05:11:31.354Z,18.90
2019-03-25T05:14:00.239Z,19.85
2019-03-25T05:16:29.132Z,16.75
2019-03-25T05:18:58.045Z,21.30
2019-03-25T05:21:27.360Z,16.32
2019-03-25T05:23:56.279Z,32.55
2019-03-25T05:26:25.182Z,14.65
2019-03-25T05:28:54.055Z,21.42
2019-03-25T05:31:22.950Z,22.27
2019-03-25T05:33:51.866Z,14.73
2019-03-25T05:36:20.788Z,25.62
2019-03-25T05:38:49.789Z,26.25
2019-03-25T05:41:19.044Z,21.87
2019-03-25T05:43:47.929Z,23.67
2019-03-25T05:46:16.797Z,17.30
2019-03-25T05:48:45.712Z,23.65
2019-03-25T05:51:14.687Z,20.02
2019-03-25T05:53:43.732Z,17.62
2019-03-25T05:56:12.601Z,14.78
2019-03-25T05:58:41.567Z,30.12
2019-03-25T06:01:10.559Z,21.90
2019-03-25T06:03:39.504Z,20.00
2019-03-25T06:06:08.389Z,23.52
2019-03-25T06:08:37.286Z,24.32
2019-03-25T06:11:06.291Z,17.60
2019-03-25T06:13:35.162Z,22.00
2019-03-25T06:16:04.012Z,27.10
2019-03-25T06:21:19.725Z,18.35
2019-03-25T06:23:48.646Z,22.58
2019-03-25T06:26:17.535Z,12.82
2019-03-25T06:28:46.448Z,17.15
2019-03-25T06:31:15.377Z,18.57
2019-03-25T06:33:44.256Z,21.07
2019-03-25T06:36:13.144Z,26.10
2019-03-25T06:38:42.091Z,22.93
2019-03-25T06:41:11.046Z,21.48
2019-03-25T06:43:39.923Z,16.50
2019-03-25T06:46:08.864Z,18.60
2019-03-25T06:48:37.752Z,20.62
2019-03-25T06:51:06.803Z,22.73
2019-03-25T06:53:35.726Z,23.57
2019-03-25T06:56:04.714Z,26.77
2019-03-25T06:58:33.594Z,18.50
2019-03-25T07:01:02.908Z,27.20
2019-03-25T07:03:31.764Z,24.77
2019-03-25T07:06:00.653Z,16.05
2019-03-25T07:08:29.625Z,24.00
2019-03-25T07:10:58.660Z,21.57
2019-03-25T07:13:28.858Z,19.82
2019-03-25T07:15:57.757Z,16.35
2019-03-25T07:18:26.655Z,25.52
2019-03-25T07:20:55.662Z,16.87
2019-03-25T07:23:24.557Z,18.65
2019-03-25T07:25:53.423Z,23.57
2019-03-25T07:28:22.304Z,16.57
2019-03-25T07:30:51.298Z,11.57
2019-03-25T07:33:20.155Z,19.87
2019-03-25T07:35:49.046Z,16.87
2019-03-25T07:38:17.959Z,20.45
2019-03-25T07:40:46.883Z,22.15
2019-03-25T07:43:15.764Z,17.60
2019-03-25T07:45:44.708Z,13.80
2019-03-25T07:48:13.581Z,20.17
2019-03-25T07:50:43.947Z,23.83
2019-03-25T07:53:12.849Z,15.80
2019-03-25T07:55:41.810Z,21.27
2019-03-25T07:58:10.682Z,18.23
2019-03-25T08:00:39.944Z,20.70
2019-03-25T08:03:08.889Z,14.68
2019-03-25T08:05:37.781Z,21.27
2019-03-25T08:08:07.527Z,19.55
2019-03-25T08:10:37.386Z,18.35
2019-03-25T08:13:06.443Z,28.30
2019-03-25T08:15:35.411Z,21.62
2019-03-25T08:18:06.007Z,20.60
2019-03-25T08:20:34.948Z,22.05
2019-03-25T08:23:03.907Z,19.55
2019-03-25T08:25:33.096Z,11.38
2019-03-25T08:28:02.023Z,24.63
2019-03-25T08:30:31.594Z,23.60
2019-03-25T08:33:00.460Z,17.35
2019-03-25T08:35:29.386Z,25.45
2019-03-25T08:37:58.255Z,23.30
2019-03-25T08:40:27.151Z,18.10
2019-03-25T08:42:56.094Z,19.65
2019-03-25T08:45:25.068Z,23.50
2019-03-25T08:47:53.989Z,18.42
2019-03-25T08:50:22.905Z,30.25
2019-03-25T08:52:51.843Z,21.80
2019-03-25T08:55:20.738Z,22.67
2019-03-25T08:57:49.701Z,21.30
2019-03-25T09:00:19.433Z,26.55
2019-03-25T09:02:48.332Z,22.55
2019-03-25T09:05:17.292Z,23.85
2019-03-25T09:07:46.221Z,16.30
2019-03-25T09:10:15.476Z,18.02
2019-03-25T09:12:44.821Z,18.85
2019-03-25T09:15:14.584Z,16.20
2019-03-25T09:17:43.706Z,14.87
2019-03-25T09:20:14.077Z,25.57
2019-03-25T09:22:43.767Z,23.87
2019-03-25T09:25:13.678Z,22.95
2019-03-25T09:27:42.678Z,20.30
2019-03-25T09:30:13.149Z,16.27
2019-03-25T09:32:42.158Z,25.02
2019-03-25T09:35:11.978Z,14.87
2019-03-25T09:37:41.120Z,15.38
2019-03-25T09:40:11.502Z,21.07
2019-03-25T09:42:40.374Z,17.75
2019-03-25T09:45:10.223Z,20.65
2019-03-25T09:47:39.232Z,18.40
2019-03-25T09:50:09.458Z,19.00
2019-03-25T09:52:39.161Z,18.05
2019-03-25T09:55:09.736Z,14.95
2019-03-25T09:57:38.995Z,18.00
2019-03-25T10:00:11.097Z,20.72
2019-03-25T10:02:39.970Z,19.95
2019-03-25T10:05:09.562Z,16.20
2019-03-25T10:07:38.540Z,17.00
2019-03-25T10:10:09.390Z,17.12
2019-03-25T10:12:38.270Z,12.70
2019-03-25T10:15:08.916Z,17.95
2019-03-25T10:17:37.806Z,17.52
2019-03-25T10:20:08.785Z,16.02
2019-03-25T10:22:37.708Z,20.12
2019-03-25T10:25:10.424Z,18.05
2019-03-25T10:27:39.332Z,13.45
2019-03-25T10:30:15.752Z,13.05
2019-03-25T10:32:45.733Z,10.18
2019-03-25T10:35:14.757Z,18.05
2019-03-25T10:37:43.682Z,14.78
2019-03-25T10:40:13.728Z,13.60
2019-03-25T10:42:42.751Z,10.08
2019-03-25T10:45:12.779Z,13.38
2019-03-25T10:47:41.718Z,18.25
2019-03-25T10:50:10.977Z,14.90
2019-03-25T10:52:39.835Z,15.08
2019-03-25T10:55:08.964Z,11.65
2019-03-25T10:57:37.849Z,13.20
2019-03-25T11:00:11.767Z,16.37
2019-03-25T11:02:40.656Z,8.77
2019-03-25T11:05:11.002Z,16.60
2019-03-25T11:07:39.968Z,12.55
2019-03-25T11:10:10.164Z,8.53
2019-03-25T11:12:40.064Z,12.50
2019-03-25T11:15:10.094Z,13.05
2019-03-25T11:17:39.096Z,8.60
2019-03-25T11:20:09.173Z,10.30
2019-03-25T11:22:39.700Z,13.00
2019-03-25T11:25:09.279Z,11.57
2019-03-25T11:27:38.167Z,12.23
2019-03-25T11:30:09.760Z,10.58
2019-03-25T11:32:38.753Z,10.80
2019-03-25T11:35:11.739Z,12.30
2019-03-25T11:37:40.627Z,10.80
2019-03-25T11:40:11.513Z,13.83
2019-03-25T11:42:40.402Z,12.05
2019-03-25T11:45:10.575Z,10.40
2019-03-25T11:47:39.674Z,10.55
2019-03-25T11:50:10.763Z,6.67
2019-03-25T11:52:39.666Z,8.68
2019-03-25T11:55:09.579Z,10.78
2019-03-25T11:57:38.463Z,12.80
2019-03-25T12:00:09.487Z,9.10
2019-03-25T12:02:38.416Z,5.50
2019-03-25T12:05:07.663Z,12.63
2019-03-25T12:07:36.597Z,13.60
2019-03-25T12:10:07.414Z,11.83
2019-03-25T12:12:36.323Z,10.75
2019-03-25T12:15:07.406Z,9.60
2019-03-25T12:17:36.436Z,6.70
2019-03-25T12:20:07.400Z,9.68
2019-03-25T12:22:36.276Z,10.65
2019-03-25T12:25:07.427Z,7.60
2019-03-25T12:27:36.335Z,11.35
2019-03-25T12:30:08.024Z,6.70
2019-03-25T12:32:36.947Z,6.95
2019-03-25T12:35:09.126Z,11.53
2019-03-25T12:37:38.003Z,7.80
2019-03-25T12:40:08.050Z,6.78
2019-03-25T12:42:37.218Z,3.85
2019-03-25T12:45:07.863Z,11.00
2019-03-25T12:47:36.812Z,5.45
2019-03-25T12:50:07.501Z,8.68
2019-03-25T12:52:36.422Z,5.50
2019-03-25T12:55:06.921Z,9.88
2019-03-25T12:57:35.904Z,7.03
2019-03-25T13:00:07.443Z,5.15
2019-03-25T13:02:36.328Z,6.87
2019-03-25T13:05:07.821Z,8.10
2019-03-25T13:07:36.743Z,4.67
2019-03-25T13:10:07.015Z,4.58
2019-03-25T13:12:35.887Z,6.03
2019-03-25T13:15:08.708Z,7.62
2019-03-25T13:17:37.592Z,6.10
2019-03-25T13:20:07.374Z,6.58
2019-03-25T13:22:36.346Z,6.67
2019-03-25T13:25:05.915Z,7.80
2019-03-25T13:27:34.796Z,3.17
2019-03-25T13:30:05.522Z,4.33
2019-03-25T13:32:34.490Z,5.87
2019-03-25T13:35:03.426Z,4.17
2019-03-25T13:37:32.924Z,4.25
2019-03-25T13:40:01.801Z,4.83
2019-03-25T13:42:30.716Z,3.92
2019-03-25T13:45:00.013Z,6.30
2019-03-25T13:47:28.890Z,5.22
2019-03-25T13:49:57.752Z,4.08
2019-03-25T13:52:26.737Z,5.22
2019-03-25T13:54:55.603Z,4.65
2019-03-25T13:57:24.496Z,1.95
2019-03-25T14:00:02.948Z,4.22
2019-03-25T14:02:24.420Z,4.58
2019-03-25T14:04:53.438Z,2.25
2019-03-25T14:07:22.418Z,5.17
2019-03-25T14:09:51.375Z,5.25
2019-03-25T14:12:20.625Z,2.52
2019-03-25T14:14:49.875Z,2.08
2019-03-25T14:17:21.744Z,4.62
2019-03-25T14:19:50.628Z,4.00
2019-03-25T14:22:19.945Z,3.02
2019-03-25T14:24:48.867Z,2.92
2019-03-25T14:27:17.780Z,3.40
2019-03-25T14:29:46.728Z,2.67
2019-03-25T14:32:15.622Z,5.55
2019-03-25T14:34:45.244Z,6.95
2019-03-25T14:37:14.391Z,5.47
2019-03-25T14:39:43.533Z,6.95
2019-03-25T14:42:12.458Z,6.03
2019-03-25T14:44:41.436Z,3.12
2019-03-25T14:47:10.381Z,4.55
2019-03-25T14:49:39.264Z,6.78
2019-03-25T14:52:08.204Z,5.47
2019-03-25T14:54:37.105Z,5.97
2019-03-25T14:57:06.036Z,4.12
2019-03-25T14:59:34.989Z,5.33
2019-03-25T15:02:03.876Z,4.12
2019-03-25T15:04:32.792Z,4.90
2019-03-25T15:07:01.739Z,3.05
2019-03-25T15:09:30.625Z,5.50
2019-03-25T15:12:00.985Z,8.20
2019-03-25T15:14:30.006Z,4.65
2019-03-25T15:16:59.009Z,7.62
2019-03-25T15:19:27.967Z,5.47
2019-03-25T15:21:56.881Z,4.83
2019-03-25T15:24:25.780Z,6.33
2019-03-25T15:26:54.659Z,6.55
2019-03-25T15:29:23.596Z,8.00
2019-03-25T15:31:52.459Z,5.45
2019-03-25T15:34:21.451Z,4.40
2019-03-25T15:36:50.344Z,5.60
2019-03-25T15:39:19.233Z,7.97
2019-03-25T15:41:48.167Z,3.92
2019-03-25T15:44:17.079Z,6.08
2019-03-25T15:46:55.386Z,5.50
2019-03-25T15:49:16.554Z,8.65
2019-03-25T15:51:45.536Z,6.62
2019-03-25T15:54:15.208Z,6.37
2019-03-25T15:56:44.174Z,6.00
2019-03-25T15:59:13.029Z,6.47
2019-03-25T16:01:41.910Z,6.42
2019-03-25T16:04:10.844Z,5.37
2019-03-25T16:06:39.725Z,5.35
2019-03-25T16:09:09.334Z,5.80
2019-03-25T16:11:38.286Z,5.97
2019-03-25T16:14:07.227Z,5.97
2019-03-25T16:16:36.163Z,5.62
2019-03-25T16:19:05.057Z,8.30
2019-03-25T16:21:34.663Z,7.05
2019-03-25T16:24:03.562Z,5.22
2019-03-25T16:26:32.471Z,5.67
2019-03-25T16:29:01.406Z,6.42
2019-03-25T16:31:30.386Z,6.03
2019-03-25T16:33:59.275Z,7.15
2019-03-25T16:36:29.809Z,5.37
2019-03-25T16:38:58.685Z,4.67
2019-03-25T16:41:27.678Z,4.83
2019-03-25T16:43:56.621Z,5.97
2019-03-25T16:46:25.508Z,8.20
2019-03-25T16:48:55.235Z,12.15
2019-03-25T16:51:24.637Z,7.12
2019-03-25T16:53:53.509Z,9.80
2019-03-25T16:56:22.398Z,6.47
2019-03-25T16:59:04.553Z,8.25
2019-03-25T17:01:33.497Z,7.42
2019-03-25T17:04:02.431Z,5.70
2019-03-25T17:06:31.332Z,4.40
2019-03-25T17:09:00.212Z,8.98
2019-03-25T17:11:29.142Z,7.50
2019-03-25T17:13:58.011Z,7.53
2019-03-25T17:16:26.953Z,3.45
2019-03-25T17:18:55.841Z,6.58
2019-03-25T17:21:24.733Z,7.22
2019-03-25T17:23:53.712Z,7.15
2019-03-25T17:26:22.714Z,6.33
2019-03-25T17:28:51.657Z,4.67
2019-03-25T17:31:21.407Z,8.85
2019-03-25T17:33:50.662Z,5.80
2019-03-25T17:36:19.608Z,7.95
2019-03-25T17:38:48.497Z,9.88
2019-03-25T17:41:17.564Z,5.53
2019-03-25T17:43:46.479Z,8.23
2019-03-25T17:46:15.348Z,4.60
2019-03-25T17:48:44.363Z,3.90
2019-03-25T17:51:13.535Z,5.55
2019-03-25T17:53:44.353Z,8.20
2019-03-25T17:56:12.963Z,9.43
2019-03-25T17:58:42.210Z,5.50
2019-03-25T18:01:13.314Z,4.30
2019-03-25T18:03:42.199Z,4.25
2019-03-25T18:06:11.212Z,7.00
2019-03-25T18:08:40.104Z,9.55
2019-03-25T18:11:09.201Z,8.15
2019-03-25T18:13:38.170Z,3.87
2019-03-25T18:16:07.125Z,7.72
2019-03-25T18:18:36.081Z,7.03
2019-03-25T18:21:05.295Z,5.80
2019-03-25T18:23:34.181Z,7.55
2019-03-25T18:26:03.100Z,5.17
2019-03-25T18:28:32.004Z,7.20
2019-03-25T18:31:01.089Z,9.78
2019-03-25T18:33:29.981Z,8.35
2019-03-25T18:35:58.869Z,14.73
2019-03-25T18:38:27.742Z,8.95
2019-03-25T18:40:56.847Z,9.63
2019-03-25T18:43:25.720Z,8.83
2019-03-25T18:45:54.621Z,7.70
2019-03-25T18:48:23.627Z,9.45
2019-03-25T18:50:52.866Z,6.97
2019-03-25T18:53:21.753Z,13.15
2019-03-25T18:55:50.716Z,7.83
2019-03-25T18:58:19.599Z,9.33
2019-03-25T19:00:48.736Z,8.48
2019-03-25T19:03:18.548Z,10.70
2019-03-25T19:05:47.635Z,6.97
2019-03-25T19:08:18.155Z,13.20
2019-03-25T19:10:47.551Z,9.30
2019-03-25T19:13:16.405Z,11.00
2019-03-25T19:15:52.658Z,5.65
2019-03-25T19:18:21.518Z,8.63
2019-03-25T19:20:50.659Z,8.48
2019-03-25T19:23:19.618Z,6.92
2019-03-25T19:25:48.500Z,8.23
2019-03-25T19:28:17.385Z,8.65
2019-03-25T19:30:46.561Z,6.97
2019-03-25T19:33:15.426Z,11.93
2019-03-25T19:35:44.282Z,4.10
2019-03-25T19:38:13.209Z,7.05
2019-03-25T19:40:42.207Z,9.15
2019-03-25T19:43:11.138Z,5.75
2019-03-25T19:45:40.083Z,12.50
2019-03-25T19:48:08.988Z,9.85
2019-03-25T19:50:37.928Z,6.85
2019-03-25T19:53:18.345Z,10.48
2019-03-25T19:55:37.445Z,11.28
2019-03-25T19:58:07.105Z,14.40
2019-03-25T20:00:41.017Z,8.75
2019-03-25T20:03:10.330Z,7.70
2019-03-25T20:05:42.756Z,10.35
2019-03-25T20:08:18.089Z,12.25
2019-03-25T20:10:49.072Z,7.20
2019-03-25T20:13:18.244Z,7.47
2019-03-25T20:15:57.191Z,6.87
2019-03-25T20:18:46.658Z,12.05
2019-03-25T20:21:14.325Z,9.15
2019-03-25T20:23:34.581Z,12.20
2019-03-25T20:26:04.029Z,12.82
2019-03-25T20:28:33.082Z,8.70
2019-03-25T20:31:04.268Z,12.10
2019-03-25T20:33:33.385Z,15.28
2019-03-25T20:36:02.954Z,15.40
2019-03-25T20:38:32.324Z,10.45
2019-03-25T20:41:01.717Z,13.93
2019-03-25T20:43:31.171Z,19.50
2019-03-25T20:46:00.627Z,14.40
2019-03-25T20:48:30.011Z,17.37
2019-03-25T20:50:59.445Z,15.03
2019-03-25T20:53:31.410Z,10.63
2019-03-25T20:56:00.324Z,13.30
2019-03-25T20:58:32.026Z,12.75
2019-03-25T21:01:00.697Z,12.25
2019-03-25T21:03:29.845Z,8.75
2019-03-25T21:05:58.926Z,10.00
2019-03-25T21:08:29.678Z,10.28
2019-03-25T21:11:00.443Z,9.65
2019-03-25T21:13:29.401Z,11.75
2019-03-25T21:16:01.174Z,8.08
2019-03-25T21:21:24.247Z,9.63
2019-03-25T21:24:01.386Z,14.03
2019-03-25T21:26:29.658Z,6.37
2019-03-25T21:28:56.091Z,7.72
2019-03-25T21:31:25.331Z,9.73
2019-03-25T21:33:54.583Z,12.58
2019-03-25T21:36:23.773Z,8.25
2019-03-25T21:38:53.333Z,14.53
2019-03-25T21:41:25.412Z,8.50
2019-03-25T21:43:54.555Z,8.95
2019-03-25T21:46:24.612Z,11.55
2019-03-25T21:48:53.633Z,5.90
2019-03-25T21:51:24.239Z,7.08
2019-03-25T21:53:56.068Z,7.17
2019-03-25T21:56:25.965Z,8.03
2019-03-25T21:58:54.908Z,7.17
2019-03-25T22:01:24.260Z,9.80
2019-03-25T22:03:56.215Z,8.08
2019-03-25T22:06:26.806Z,8.33
2019-03-25T22:08:58.196Z,7.10
2019-03-25T22:11:27.245Z,7.28
2019-03-25T22:13:57.623Z,7.92
2019-03-25T22:16:28.457Z,11.83
2019-03-25T22:18:59.088Z,6.78
2019-03-25T22:21:28.036Z,8.90
2019-03-25T22:23:57.547Z,11.63
2019-03-25T22:26:27.976Z,10.38
2019-03-25T22:28:56.855Z,8.30
2019-03-25T22:31:25.855Z,13.50
2019-03-25T22:33:56.422Z,9.98
2019-03-25T22:36:25.930Z,8.28
2019-03-25T22:38:55.192Z,9.45
2019-03-25T22:41:25.343Z,6.80
2019-03-25T22:43:56.396Z,6.05
2019-03-25T22:46:25.655Z,8.70
2019-03-25T22:48:56.046Z,5.22
2019-03-25T22:51:27.415Z,7.15
2019-03-25T22:53:59.729Z,7.40
2019-03-25T22:56:28.935Z,12.90
2019-03-25T22:59:01.362Z,6.03
2019-03-25T23:01:30.375Z,8.15
2019-03-25T23:03:59.252Z,3.10
2019-03-25T23:06:28.270Z,4.55
2019-03-25T23:08:57.717Z,6.12
2019-03-25T23:11:29.455Z,7.12
2019-03-25T23:13:59.155Z,4.17
2019-03-25T23:16:28.018Z,4.33
2019-03-25T23:18:56.966Z,2.92
2019-03-25T23:21:25.922Z,6.70
2019-03-25T23:23:54.856Z,4.25
2019-03-25T23:26:23.811Z,5.17
2019-03-25T23:28:52.732Z,5.42
2019-03-25T23:31:21.892Z,5.58
2019-03-25T23:33:52.500Z,3.77
2019-03-25T23:36:21.324Z,4.62
2019-03-25T23:38:50.258Z,4.47
2019-03-25T23:41:19.361Z,6.62
2019-03-25T23:43:48.234Z,6.30
2019-03-25T23:46:17.840Z,4.97
2019-03-25T23:48:46.725Z,6.17
2019-03-25T23:51:15.621Z,6.15
2019-03-25T23:53:44.562Z,13.53
2019-03-25T23:56:13.471Z,4.28
2019-03-25T23:58:42.334Z,7.25
